KLM147 EHAM-EDDM
Flight info
| Callsign | KLM147 |
|---|---|
| Flight time | 1h 5m |
| Altitude | 31000 |
| Route | EDUPO Z739 MISGO DCT DOJOH DCT DODEN DCT TABUM DCT BOMBI T104 HAREM/N0439F270 T104 ROKIL ROKIL1B |
| Aircraft | B738/M-SDE2E3FGHIRWXY/LB1 |
Departure
| Time | 2026-05-05 17:46 |
|---|---|
| Airport | Amsterdam Airport Schiphol (EHAM) |
Arrival
| Time | 2026-05-05 18:52 |
|---|---|
| Airport | Munich Airport (EDDM) |
| Time | Latitude | Longitude | Altitude | Speed | Heading |
|---|---|---|---|---|---|
| 2026-05-05 17:23 | 52.31354 | 4.76065 | 3 ft | 0 kts | 147° |
| 2026-05-05 17:38 | 52.31359 | 4.76060 | 2 ft | 2 kts | 147° |
| 2026-05-05 17:38 | 52.31372 | 4.76046 | 2 ft | 2 kts | 148° |
| 2026-05-05 17:38 | 52.31385 | 4.76033 | 1 ft | 2 kts | 147° |
| 2026-05-05 17:38 | 52.31397 | 4.76020 | 1 ft | 2 kts | 147° |
| 2026-05-05 17:39 | 52.31410 | 4.76006 | 0 ft | 2 kts | 148° |
| 2026-05-05 17:39 | 52.31424 | 4.75995 | 0 ft | 2 kts | 179° |
| 2026-05-05 17:39 | 52.31438 | 4.76001 | 0 ft | 2 kts | 213° |
| 2026-05-05 17:39 | 52.31448 | 4.76020 | 0 ft | 2 kts | 249° |
| 2026-05-05 17:40 | 52.31450 | 4.76033 | 0 ft | 1 kts | 271° |
| 2026-05-05 17:40 | 52.31450 | 4.76042 | 0 ft | 0 kts | 267° |
| 2026-05-05 17:41 | 52.31450 | 4.76037 | 0 ft | 2 kts | 267° |
| 2026-05-05 17:42 | 52.31455 | 4.75977 | 0 ft | 7 kts | 301° |
| 2026-05-05 17:42 | 52.31514 | 4.75886 | -1 ft | 15 kts | 300° |
| 2026-05-05 17:42 | 52.31522 | 4.75681 | 1 ft | 20 kts | 266° |
| 2026-05-05 17:42 | 52.31512 | 4.75404 | 0 ft | 29 kts | 267° |
| 2026-05-05 17:43 | 52.31498 | 4.75022 | -4 ft | 37 kts | 267° |
| 2026-05-05 17:43 | 52.31485 | 4.74644 | -7 ft | 30 kts | 266° |
| 2026-05-05 17:43 | 52.31476 | 4.74346 | -7 ft | 28 kts | 267° |
| 2026-05-05 17:43 | 52.31381 | 4.74139 | -4 ft | 19 kts | 188° |
| 2026-05-05 17:44 | 52.31262 | 4.74124 | -3 ft | 20 kts | 183° |
| 2026-05-05 17:44 | 52.31090 | 4.74110 | -4 ft | 28 kts | 182° |
| 2026-05-05 17:44 | 52.30860 | 4.74089 | -8 ft | 37 kts | 184° |
| 2026-05-05 17:44 | 52.30641 | 4.74067 | -11 ft | 31 kts | 184° |
| 2026-05-05 17:45 | 52.30405 | 4.74043 | -11 ft | 33 kts | 188° |
| 2026-05-05 17:45 | 52.30203 | 4.73885 | -12 ft | 25 kts | 234° |
| 2026-05-05 17:45 | 52.30243 | 4.73744 | -9 ft | 19 kts | 354° |
| 2026-05-05 17:45 | 52.30296 | 4.73743 | -9 ft | 0 kts | 2° |
| 2026-05-05 17:46 | 52.30474 | 4.73759 | -9 ft | 67 kts | 3° |
| 2026-05-05 17:46 | 52.31231 | 4.73830 | -2 ft | 147 kts | 2° |
| 2026-05-05 17:46 | 52.32394 | 4.73913 | 470 ft | 181 kts | 8° |
| 2026-05-05 17:46 | 52.33617 | 4.74228 | 1407 ft | 182 kts | 19° |
| 2026-05-05 17:47 | 52.34788 | 4.75032 | 2120 ft | 191 kts | 25° |
| 2026-05-05 17:47 | 52.36056 | 4.75889 | 2668 ft | 208 kts | 22° |
| 2026-05-05 17:47 | 52.37452 | 4.76767 | 3250 ft | 224 kts | 25° |
| 2026-05-05 17:47 | 52.38794 | 4.78183 | 3795 ft | 241 kts | 42° |
| 2026-05-05 17:48 | 52.39977 | 4.80231 | 4488 ft | 252 kts | 48° |
| 2026-05-05 17:48 | 52.41119 | 4.82385 | 5291 ft | 258 kts | 50° |
| 2026-05-05 17:48 | 52.42071 | 4.84881 | 6095 ft | 265 kts | 65° |
| 2026-05-05 17:48 | 52.42490 | 4.87832 | 6898 ft | 272 kts | 85° |
| 2026-05-05 17:49 | 52.42502 | 4.90918 | 7702 ft | 276 kts | 90° |
| 2026-05-05 17:49 | 52.42442 | 4.94050 | 8494 ft | 280 kts | 93° |
| 2026-05-05 17:49 | 52.42065 | 4.97196 | 9289 ft | 285 kts | 108° |
| 2026-05-05 17:49 | 52.41135 | 5.00017 | 10013 ft | 291 kts | 128° |
| 2026-05-05 17:50 | 52.39614 | 5.02297 | 10511 ft | 305 kts | 142° |
| 2026-05-05 17:50 | 52.37833 | 5.04338 | 10967 ft | 320 kts | 144° |
| 2026-05-05 17:50 | 52.35939 | 5.06451 | 11394 ft | 336 kts | 144° |
| 2026-05-05 17:50 | 52.33994 | 5.08672 | 11757 ft | 351 kts | 142° |
| 2026-05-05 17:51 | 52.32108 | 5.11341 | 12150 ft | 365 kts | 134° |
| 2026-05-05 17:51 | 52.30329 | 5.14422 | 12642 ft | 376 kts | 130° |
| 2026-05-05 17:51 | 52.28636 | 5.17607 | 13383 ft | 378 kts | 129° |
| 2026-05-05 17:51 | 52.26924 | 5.20878 | 14082 ft | 382 kts | 129° |
| 2026-05-05 17:52 | 52.25197 | 5.24141 | 14742 ft | 386 kts | 129° |
| 2026-05-05 17:52 | 52.23481 | 5.27541 | 15453 ft | 388 kts | 126° |
| 2026-05-05 17:52 | 52.21890 | 5.31075 | 16120 ft | 391 kts | 124° |
| 2026-05-05 17:52 | 52.20334 | 5.34736 | 16789 ft | 394 kts | 123° |
| 2026-05-05 17:53 | 52.18794 | 5.38412 | 17409 ft | 397 kts | 123° |
| 2026-05-05 17:53 | 52.17248 | 5.42082 | 18045 ft | 400 kts | 123° |
| 2026-05-05 17:53 | 52.15648 | 5.45830 | 18631 ft | 404 kts | 124° |
| 2026-05-05 17:53 | 52.14029 | 5.49579 | 19180 ft | 408 kts | 124° |
| 2026-05-05 17:54 | 52.12398 | 5.53330 | 19744 ft | 411 kts | 125° |
| 2026-05-05 17:54 | 52.10735 | 5.57134 | 20291 ft | 415 kts | 126° |
| 2026-05-05 17:54 | 52.09073 | 5.60924 | 20799 ft | 419 kts | 126° |
| 2026-05-05 17:54 | 52.07374 | 5.64786 | 21328 ft | 422 kts | 126° |
| 2026-05-05 17:55 | 52.05651 | 5.68625 | 21843 ft | 425 kts | 129° |
| 2026-05-05 17:55 | 52.03798 | 5.72361 | 22333 ft | 427 kts | 131° |
| 2026-05-05 17:55 | 52.01853 | 5.76022 | 22857 ft | 429 kts | 133° |
| 2026-05-05 17:55 | 51.99871 | 5.79648 | 23354 ft | 432 kts | 134° |
| 2026-05-05 17:56 | 51.97885 | 5.83254 | 23894 ft | 434 kts | 134° |
| 2026-05-05 17:56 | 51.95879 | 5.86902 | 24384 ft | 437 kts | 134° |
| 2026-05-05 17:56 | 51.93863 | 5.90587 | 24874 ft | 439 kts | 134° |
| 2026-05-05 17:56 | 51.91848 | 5.94290 | 25343 ft | 442 kts | 134° |
| 2026-05-05 17:57 | 51.89800 | 5.98067 | 25784 ft | 445 kts | 133° |
| 2026-05-05 17:57 | 51.87780 | 6.01802 | 26242 ft | 448 kts | 134° |
| 2026-05-05 17:57 | 51.85734 | 6.05588 | 26718 ft | 450 kts | 133° |
| 2026-05-05 17:57 | 51.83672 | 6.09396 | 27178 ft | 452 kts | 133° |
| 2026-05-05 17:58 | 51.81607 | 6.13192 | 27680 ft | 452 kts | 133° |
| 2026-05-05 17:58 | 51.79514 | 6.17023 | 28021 ft | 457 kts | 133° |
| 2026-05-05 17:58 | 51.77427 | 6.20844 | 28586 ft | 456 kts | 133° |
| 2026-05-05 17:58 | 51.75343 | 6.24649 | 29295 ft | 451 kts | 133° |
| 2026-05-05 17:59 | 51.73288 | 6.28399 | 30007 ft | 446 kts | 133° |
| 2026-05-05 17:59 | 51.71252 | 6.32101 | 30611 ft | 443 kts | 133° |
| 2026-05-05 17:59 | 51.69809 | 6.34722 | 30822 ft | 444 kts | 133° |
| 2026-05-05 18:00 | 51.65713 | 6.42158 | 30850 ft | 437 kts | 133° |
| 2026-05-05 18:00 | 51.61668 | 6.49478 | 30848 ft | 437 kts | 133° |
| 2026-05-05 18:01 | 51.57623 | 6.56780 | 30841 ft | 438 kts | 133° |
| 2026-05-05 18:01 | 51.53537 | 6.64136 | 30836 ft | 438 kts | 133° |
| 2026-05-05 18:02 | 51.49505 | 6.71378 | 30835 ft | 438 kts | 134° |
| 2026-05-05 18:02 | 51.45339 | 6.78478 | 30832 ft | 436 kts | 135° |
| 2026-05-05 18:03 | 51.41065 | 6.85366 | 30830 ft | 435 kts | 137° |
| 2026-05-05 18:03 | 51.36744 | 6.92080 | 30832 ft | 434 kts | 137° |
| 2026-05-05 18:04 | 51.32395 | 6.98818 | 30826 ft | 435 kts | 137° |
| 2026-05-05 18:04 | 51.28090 | 7.05497 | 30817 ft | 434 kts | 137° |
| 2026-05-05 18:05 | 51.23788 | 7.12181 | 30814 ft | 433 kts | 137° |
| 2026-05-05 18:05 | 51.19482 | 7.18871 | 30803 ft | 433 kts | 137° |
| 2026-05-05 18:06 | 51.15150 | 7.25585 | 30804 ft | 431 kts | 137° |
| 2026-05-05 18:06 | 51.10863 | 7.32210 | 30804 ft | 431 kts | 137° |
| 2026-05-05 18:07 | 51.06601 | 7.38778 | 30800 ft | 428 kts | 137° |
| 2026-05-05 18:07 | 51.02354 | 7.45344 | 30796 ft | 428 kts | 136° |
| 2026-05-05 18:08 | 50.98090 | 7.51915 | 30789 ft | 426 kts | 137° |
| 2026-05-05 18:08 | 50.93832 | 7.58437 | 30786 ft | 427 kts | 137° |
| 2026-05-05 18:09 | 50.89581 | 7.64938 | 30792 ft | 425 kts | 137° |
| 2026-05-05 18:09 | 50.85318 | 7.71409 | 30794 ft | 424 kts | 137° |
| 2026-05-05 18:10 | 50.81100 | 7.77891 | 30791 ft | 423 kts | 137° |
| 2026-05-05 18:10 | 50.76917 | 7.84373 | 30800 ft | 421 kts | 136° |
| 2026-05-05 18:11 | 50.72753 | 7.90816 | 30799 ft | 420 kts | 137° |
| 2026-05-05 18:11 | 50.68598 | 7.97222 | 30800 ft | 420 kts | 137° |
| 2026-05-05 18:12 | 50.64434 | 8.03628 | 30801 ft | 417 kts | 137° |
| 2026-05-05 18:12 | 50.60297 | 8.09973 | 30801 ft | 417 kts | 137° |
| 2026-05-05 18:13 | 50.56150 | 8.16310 | 30798 ft | 417 kts | 137° |
| 2026-05-05 18:13 | 50.51995 | 8.22639 | 30797 ft | 416 kts | 136° |
| 2026-05-05 18:14 | 50.47851 | 8.28964 | 30796 ft | 418 kts | 136° |
| 2026-05-05 18:14 | 50.43699 | 8.35274 | 30797 ft | 417 kts | 137° |
| 2026-05-05 18:15 | 50.39515 | 8.41557 | 30793 ft | 416 kts | 137° |
| 2026-05-05 18:15 | 50.35355 | 8.47802 | 30795 ft | 416 kts | 136° |
| 2026-05-05 18:16 | 50.31198 | 8.54075 | 30796 ft | 415 kts | 136° |
| 2026-05-05 18:16 | 50.27003 | 8.60384 | 30802 ft | 417 kts | 136° |
| 2026-05-05 18:17 | 50.22828 | 8.66634 | 30808 ft | 416 kts | 137° |
| 2026-05-05 18:17 | 50.18652 | 8.72870 | 30806 ft | 415 kts | 137° |
| 2026-05-05 18:18 | 50.14490 | 8.79080 | 30801 ft | 414 kts | 137° |
| 2026-05-05 18:18 | 50.10307 | 8.85297 | 30801 ft | 415 kts | 137° |
| 2026-05-05 18:19 | 50.06167 | 8.91433 | 30801 ft | 415 kts | 136° |
| 2026-05-05 18:19 | 50.01968 | 8.97651 | 30803 ft | 415 kts | 136° |
| 2026-05-05 18:20 | 49.97782 | 9.03832 | 30800 ft | 417 kts | 136° |
| 2026-05-05 18:20 | 49.93587 | 9.10002 | 30800 ft | 418 kts | 136° |
| 2026-05-05 18:21 | 49.89358 | 9.16205 | 30798 ft | 418 kts | 136° |
| 2026-05-05 18:21 | 49.85142 | 9.22371 | 30798 ft | 418 kts | 137° |
| 2026-05-05 18:22 | 49.80908 | 9.28544 | 30802 ft | 418 kts | 137° |
| 2026-05-05 18:22 | 49.76686 | 9.34687 | 30800 ft | 418 kts | 137° |
| 2026-05-05 18:23 | 49.72438 | 9.40849 | 30793 ft | 419 kts | 137° |
| 2026-05-05 18:23 | 49.68190 | 9.46999 | 30794 ft | 420 kts | 137° |
| 2026-05-05 18:24 | 49.63953 | 9.53120 | 30794 ft | 420 kts | 137° |
| 2026-05-05 18:24 | 49.59683 | 9.59275 | 30792 ft | 420 kts | 137° |
| 2026-05-05 18:25 | 49.55404 | 9.65427 | 30798 ft | 421 kts | 138° |
| 2026-05-05 18:25 | 49.51137 | 9.71547 | 30800 ft | 421 kts | 138° |
| 2026-05-05 18:26 | 49.46850 | 9.77677 | 30797 ft | 422 kts | 138° |
| 2026-05-05 18:26 | 49.42568 | 9.83790 | 30558 ft | 418 kts | 138° |
| 2026-05-05 18:26 | 49.40432 | 9.86834 | 29746 ft | 420 kts | 138° |
| 2026-05-05 18:27 | 49.38301 | 9.89864 | 28633 ft | 428 kts | 138° |
| 2026-05-05 18:27 | 49.36077 | 9.93023 | 27480 ft | 436 kts | 138° |
| 2026-05-05 18:27 | 49.33867 | 9.96162 | 26241 ft | 446 kts | 139° |
| 2026-05-05 18:27 | 49.31590 | 9.99388 | 25153 ft | 449 kts | 139° |
| 2026-05-05 18:28 | 49.27066 | 10.05793 | 24821 ft | 442 kts | 139° |
| 2026-05-05 18:28 | 49.24802 | 10.08990 | 24817 ft | 443 kts | 139° |
| 2026-05-05 18:28 | 49.22607 | 10.12087 | 24819 ft | 425 kts | 139° |
| 2026-05-05 18:29 | 49.20485 | 10.15080 | 24826 ft | 408 kts | 139° |
| 2026-05-05 18:29 | 49.18395 | 10.18021 | 24822 ft | 405 kts | 139° |
| 2026-05-05 18:29 | 49.16323 | 10.20930 | 24821 ft | 408 kts | 139° |
| 2026-05-05 18:29 | 49.14246 | 10.23843 | 24824 ft | 409 kts | 139° |
| 2026-05-05 18:30 | 49.12192 | 10.26875 | 24819 ft | 408 kts | 136° |
| 2026-05-05 18:30 | 49.10238 | 10.29971 | 24820 ft | 409 kts | 135° |
| 2026-05-05 18:30 | 49.08310 | 10.33121 | 24814 ft | 409 kts | 134° |
| 2026-05-05 18:30 | 49.06364 | 10.36325 | 24816 ft | 409 kts | 134° |
| 2026-05-05 18:31 | 49.04431 | 10.39496 | 24813 ft | 409 kts | 134° |
| 2026-05-05 18:31 | 49.02506 | 10.42635 | 24814 ft | 409 kts | 135° |
| 2026-05-05 18:31 | 49.00552 | 10.45800 | 24800 ft | 408 kts | 135° |
| 2026-05-05 18:31 | 48.98619 | 10.48913 | 24447 ft | 403 kts | 135° |
| 2026-05-05 18:32 | 48.96705 | 10.51980 | 23529 ft | 401 kts | 135° |
| 2026-05-05 18:32 | 48.94813 | 10.54999 | 22571 ft | 401 kts | 135° |
| 2026-05-05 18:32 | 48.92905 | 10.58035 | 21655 ft | 399 kts | 136° |
| 2026-05-05 18:32 | 48.91003 | 10.61062 | 20776 ft | 397 kts | 136° |
| 2026-05-05 18:33 | 48.89116 | 10.64062 | 19936 ft | 393 kts | 136° |
| 2026-05-05 18:33 | 48.87242 | 10.67040 | 19062 ft | 391 kts | 137° |
| 2026-05-05 18:33 | 48.85379 | 10.69999 | 18214 ft | 389 kts | 137° |
| 2026-05-05 18:33 | 48.83517 | 10.72954 | 17393 ft | 386 kts | 137° |
| 2026-05-05 18:34 | 48.81680 | 10.75865 | 16900 ft | 379 kts | 137° |
| 2026-05-05 18:34 | 48.79846 | 10.78762 | 16441 ft | 382 kts | 137° |
| 2026-05-05 18:34 | 48.78011 | 10.81646 | 15997 ft | 381 kts | 137° |
| 2026-05-05 18:34 | 48.76184 | 10.84512 | 15550 ft | 378 kts | 137° |
| 2026-05-05 18:35 | 48.74355 | 10.87376 | 15089 ft | 376 kts | 137° |
| 2026-05-05 18:35 | 48.72562 | 10.90183 | 14619 ft | 374 kts | 137° |
| 2026-05-05 18:35 | 48.70771 | 10.92983 | 14158 ft | 372 kts | 137° |
| 2026-05-05 18:35 | 48.68962 | 10.95809 | 13697 ft | 371 kts | 137° |
| 2026-05-05 18:36 | 48.67189 | 10.98576 | 13250 ft | 369 kts | 137° |
| 2026-05-05 18:36 | 48.65405 | 11.01354 | 12805 ft | 368 kts | 137° |
| 2026-05-05 18:36 | 48.63624 | 11.04124 | 12361 ft | 365 kts | 137° |
| 2026-05-05 18:36 | 48.61860 | 11.06862 | 11912 ft | 362 kts | 137° |
| 2026-05-05 18:37 | 48.60127 | 11.09547 | 11472 ft | 360 kts | 137° |
| 2026-05-05 18:37 | 48.58355 | 11.12247 | 11023 ft | 356 kts | 140° |
| 2026-05-05 18:37 | 48.56692 | 11.14936 | 10846 ft | 357 kts | 127° |
| 2026-05-05 18:37 | 48.55522 | 11.18256 | 10836 ft | 363 kts | 115° |
| 2026-05-05 18:38 | 48.54620 | 11.21801 | 10828 ft | 365 kts | 112° |
| 2026-05-05 18:38 | 48.53774 | 11.25417 | 10825 ft | 366 kts | 112° |
| 2026-05-05 18:38 | 48.52906 | 11.29010 | 10825 ft | 364 kts | 113° |
| 2026-05-05 18:38 | 48.51979 | 11.32617 | 10828 ft | 364 kts | 114° |
| 2026-05-05 18:39 | 48.51029 | 11.36144 | 10818 ft | 363 kts | 115° |
| 2026-05-05 18:39 | 48.50070 | 11.39614 | 10430 ft | 357 kts | 115° |
| 2026-05-05 18:39 | 48.49124 | 11.42993 | 9903 ft | 350 kts | 115° |
| 2026-05-05 18:39 | 48.48204 | 11.46276 | 9814 ft | 328 kts | 115° |
| 2026-05-05 18:40 | 48.47346 | 11.49340 | 9826 ft | 307 kts | 115° |
| 2026-05-05 18:40 | 48.46547 | 11.52190 | 9809 ft | 291 kts | 116° |
| 2026-05-05 18:40 | 48.45747 | 11.55008 | 9813 ft | 291 kts | 116° |
| 2026-05-05 18:40 | 48.44964 | 11.57778 | 9824 ft | 289 kts | 116° |
| 2026-05-05 18:41 | 48.44200 | 11.60577 | 9817 ft | 291 kts | 112° |
| 2026-05-05 18:41 | 48.43769 | 11.63576 | 9814 ft | 295 kts | 93° |
| 2026-05-05 18:41 | 48.43902 | 11.66653 | 9803 ft | 295 kts | 85° |
| 2026-05-05 18:41 | 48.44192 | 11.69716 | 9812 ft | 296 kts | 83° |
| 2026-05-05 18:42 | 48.44487 | 11.72765 | 9813 ft | 297 kts | 84° |
| 2026-05-05 18:42 | 48.44763 | 11.75859 | 9804 ft | 291 kts | 84° |
| 2026-05-05 18:42 | 48.45006 | 11.78835 | 9377 ft | 291 kts | 85° |
| 2026-05-05 18:42 | 48.45237 | 11.81885 | 8825 ft | 294 kts | 85° |
| 2026-05-05 18:43 | 48.45470 | 11.84947 | 8400 ft | 292 kts | 84° |
| 2026-05-05 18:43 | 48.45700 | 11.87935 | 7961 ft | 291 kts | 84° |
| 2026-05-05 18:43 | 48.45934 | 11.90964 | 7575 ft | 288 kts | 84° |
| 2026-05-05 18:43 | 48.46159 | 11.93947 | 7126 ft | 288 kts | 83° |
| 2026-05-05 18:44 | 48.46388 | 11.96913 | 6692 ft | 287 kts | 82° |
| 2026-05-05 18:44 | 48.46621 | 11.99927 | 6229 ft | 288 kts | 82° |
| 2026-05-05 18:44 | 48.46847 | 12.02862 | 5828 ft | 286 kts | 82° |
| 2026-05-05 18:44 | 48.47071 | 12.05805 | 5469 ft | 282 kts | 82° |
| 2026-05-05 18:45 | 48.47292 | 12.08753 | 5126 ft | 280 kts | 82° |
| 2026-05-05 18:45 | 48.47503 | 12.11633 | 4978 ft | 277 kts | 82° |
| 2026-05-05 18:45 | 48.47697 | 12.14542 | 4964 ft | 278 kts | 86° |
| 2026-05-05 18:45 | 48.47388 | 12.17380 | 4961 ft | 280 kts | 113° |
| 2026-05-05 18:46 | 48.46264 | 12.19745 | 4965 ft | 278 kts | 142° |
| 2026-05-05 18:46 | 48.44593 | 12.21073 | 4975 ft | 271 kts | 167° |
| 2026-05-05 18:46 | 48.42760 | 12.21669 | 4975 ft | 269 kts | 174° |
| 2026-05-05 18:46 | 48.40896 | 12.21954 | 4969 ft | 264 kts | 189° |
| 2026-05-05 18:47 | 48.39207 | 12.21139 | 4971 ft | 254 kts | 218° |
| 2026-05-05 18:47 | 48.37983 | 12.19348 | 4970 ft | 245 kts | 241° |
| 2026-05-05 18:47 | 48.37473 | 12.16980 | 4972 ft | 239 kts | 270° |
| 2026-05-05 18:47 | 48.37845 | 12.14572 | 4970 ft | 231 kts | 296° |
| 2026-05-05 18:48 | 48.38668 | 12.12596 | 4973 ft | 220 kts | 303° |
| 2026-05-05 18:48 | 48.39508 | 12.10711 | 4974 ft | 216 kts | 296° |
| 2026-05-05 18:48 | 48.39838 | 12.08528 | 4977 ft | 218 kts | 269° |
| 2026-05-05 18:48 | 48.39431 | 12.06316 | 4721 ft | 228 kts | 245° |
| 2026-05-05 18:49 | 48.38707 | 12.04186 | 4383 ft | 226 kts | 252° |
| 2026-05-05 18:49 | 48.38316 | 12.01948 | 4074 ft | 223 kts | 263° |
| 2026-05-05 18:49 | 48.38083 | 11.99639 | 3769 ft | 221 kts | 265° |
| 2026-05-05 18:49 | 48.37879 | 11.97380 | 3464 ft | 218 kts | 265° |
| 2026-05-05 18:50 | 48.37693 | 11.95128 | 3168 ft | 216 kts | 266° |
| 2026-05-05 18:50 | 48.37519 | 11.92943 | 2870 ft | 202 kts | 265° |
| 2026-05-05 18:50 | 48.37363 | 11.90940 | 2632 ft | 183 kts | 266° |
| 2026-05-05 18:50 | 48.37224 | 11.89142 | 2375 ft | 169 kts | 265° |
| 2026-05-05 18:51 | 48.37095 | 11.87474 | 2172 ft | 157 kts | 265° |
| 2026-05-05 18:51 | 48.36974 | 11.85881 | 2007 ft | 151 kts | 265° |
| 2026-05-05 18:51 | 48.36853 | 11.84284 | 1773 ft | 153 kts | 265° |
| 2026-05-05 18:51 | 48.36734 | 11.82701 | 1549 ft | 153 kts | 265° |
| 2026-05-05 18:52 | 48.36610 | 11.81128 | 1447 ft | 142 kts | 264° |
| 2026-05-05 18:52 | 48.36525 | 11.79989 | 1450 ft | 79 kts | 264° |
| 2026-05-05 18:52 | 48.36486 | 11.79468 | 1454 ft | 19 kts | 263° |
| 2026-05-05 18:52 | 48.36467 | 11.79218 | 1457 ft | 31 kts | 261° |
| 2026-05-05 18:53 | 48.36376 | 11.78856 | 1460 ft | 34 kts | 234° |
| 2026-05-05 18:53 | 48.36317 | 11.78737 | 1460 ft | 0 kts | 233° |
| 2026-05-05 18:53 | 48.36282 | 11.78667 | 1461 ft | 15 kts | 233° |
| 2026-05-05 18:54 | 48.36202 | 11.78501 | 1462 ft | 11 kts | 234° |
| 2026-05-05 18:54 | 48.36131 | 11.78339 | 1464 ft | 25 kts | 252° |
| 2026-05-05 18:54 | 48.36100 | 11.78003 | 1460 ft | 28 kts | 265° |
| 2026-05-05 18:54 | 48.36082 | 11.77744 | 1460 ft | 25 kts | 262° |
| 2026-05-05 18:55 | 48.36009 | 11.77669 | 1460 ft | 0 kts | 176° |
| 2026-05-05 18:55 | 48.36003 | 11.77670 | 1460 ft | 5 kts | 176° |
| 2026-05-05 18:55 | 48.35945 | 11.77679 | 1460 ft | 0 kts | 173° |
| 2026-05-05 18:56 | 48.35944 | 11.77679 | 1460 ft | 1 kts | 173° |
| 2026-05-05 18:56 | 48.35875 | 11.77691 | 1460 ft | 18 kts | 174° |
| 2026-05-05 18:56 | 48.35728 | 11.77716 | 1462 ft | 22 kts | 173° |
| 2026-05-05 18:57 | 48.35598 | 11.77739 | 1464 ft | 18 kts | 174° |
| 2026-05-05 18:57 | 48.35487 | 11.77757 | 1467 ft | 15 kts | 174° |
| 2026-05-05 18:57 | 48.35380 | 11.77777 | 1469 ft | 12 kts | 167° |
| 2026-05-05 18:57 | 48.35337 | 11.77873 | 1469 ft | 16 kts | 89° |
| 2026-05-05 18:58 | 48.35348 | 11.78046 | 1469 ft | 13 kts | 83° |
| 2026-05-05 18:58 | 48.35334 | 11.78128 | 1470 ft | 7 kts | 148° |
| 2026-05-05 18:58 | 48.35284 | 11.78147 | 1470 ft | 0 kts | 171° |
| 2026-05-05 18:58 | 48.35254 | 11.78153 | 1470 ft | 10 kts | 173° |
| 2026-05-05 18:59 | 48.35150 | 11.78169 | 1470 ft | 14 kts | 174° |
| 2026-05-05 18:59 | 48.35122 | 11.78173 | 1470 ft | 7 kts | 174° |
| 2026-05-05 18:59 | 48.35080 | 11.78180 | 1470 ft | 0 kts | 174° |
| 2026-05-05 19:00 | 48.35045 | 11.78186 | 1470 ft | 10 kts | 173° |
| 2026-05-05 19:00 | 48.34952 | 11.78202 | 1470 ft | 5 kts | 174° |
| 2026-05-05 19:00 | 48.34920 | 11.78215 | 1470 ft | 8 kts | 154° |
| 2026-05-05 19:01 | 48.34894 | 11.78285 | 1470 ft | 8 kts | 91° |
| 2026-05-05 19:01 | 48.34895 | 11.78295 | 1470 ft | 1 kts | 88° |
| 2026-05-05 19:01 | 48.34898 | 11.78357 | 1471 ft | 9 kts | 83° |
| 2026-05-05 19:01 | 48.34901 | 11.78394 | 1472 ft | 0 kts | 83° |